createdAt,value
2023-05-22T00:02:00.372Z,72.30
2023-05-22T00:04:26.888Z,73.20
2023-05-22T00:06:53.787Z,72.80
2023-05-22T00:09:20.546Z,73.20
2023-05-22T00:11:47.842Z,73.70
2023-05-22T00:14:14.385Z,74.00
2023-05-22T00:16:41.472Z,74.30
2023-05-22T00:19:08.373Z,74.30
2023-05-22T00:21:34.917Z,74.20
2023-05-22T00:24:02.311Z,74.00
2023-05-22T00:26:28.840Z,74.00
2023-05-22T00:28:56.229Z,73.80
2023-05-22T00:31:23.367Z,73.40
2023-05-22T00:33:50.261Z,73.40
2023-05-22T00:36:16.881Z,73.30
2023-05-22T00:38:43.685Z,74.40
2023-05-22T00:41:10.831Z,73.80
2023-05-22T00:43:39.385Z,73.30
2023-05-22T00:46:06.371Z,72.70
2023-05-22T00:48:33.065Z,73.00
2023-05-22T00:51:00.477Z,73.10
2023-05-22T00:53:28.723Z,73.40
2023-05-22T00:55:57.640Z,73.60
2023-05-22T00:58:26.777Z,74.00
2023-05-22T01:00:53.788Z,74.00
2023-05-22T01:03:20.766Z,74.20
2023-05-22T01:05:47.707Z,74.20
2023-05-22T01:08:14.569Z,74.30
2023-05-22T01:10:41.284Z,74.40
2023-05-22T01:13:30.042Z,74.60
2023-05-22T01:16:03.628Z,74.80
2023-05-22T01:18:34.470Z,74.70
2023-05-22T01:21:13.649Z,74.60
2023-05-22T01:23:40.551Z,74.60
2023-05-22T01:26:21.056Z,74.30
2023-05-22T01:29:29.026Z,74.60
2023-05-22T01:31:58.879Z,74.30
2023-05-22T01:34:26.925Z,74.20
2023-05-22T01:36:55.352Z,74.20
2023-05-22T01:39:24.595Z,74.10
2023-05-22T01:41:51.530Z,74.10
2023-05-22T01:44:18.425Z,74.30
2023-05-22T01:46:45.486Z,74.30
2023-05-22T01:49:11.965Z,74.40
2023-05-22T01:52:03.731Z,74.70
2023-05-22T01:54:43.812Z,75.00
2023-05-22T01:57:16.552Z,75.10
2023-05-22T01:59:45.730Z,74.60
2023-05-22T02:02:15.808Z,74.70
2023-05-22T02:04:46.244Z,75.00
2023-05-22T02:07:14.276Z,75.10
2023-05-22T02:09:42.217Z,74.90
2023-05-22T02:12:09.376Z,74.50
2023-05-22T02:14:37.060Z,74.50
2023-05-22T02:17:05.202Z,74.60
2023-05-22T02:19:35.035Z,75.30
2023-05-22T02:22:02.439Z,74.60
2023-05-22T02:24:30.892Z,74.40
2023-05-22T02:26:57.416Z,74.30
2023-05-22T02:29:24.585Z,74.40
2023-05-22T02:31:53.655Z,74.10
2023-05-22T02:34:20.528Z,74.20
2023-05-22T02:36:47.050Z,74.30
2023-05-22T02:39:13.902Z,74.30
2023-05-22T02:41:40.757Z,74.20
2023-05-22T02:44:07.243Z,74.20
2023-05-22T02:46:34.272Z,74.30
2023-05-22T02:49:00.774Z,74.10
2023-05-22T02:51:27.283Z,74.00
2023-05-22T02:53:54.146Z,73.90
2023-05-22T02:56:20.997Z,74.00
2023-05-22T02:58:47.976Z,74.20
2023-05-22T03:01:14.897Z,74.00
2023-05-22T03:03:41.888Z,73.90
2023-05-22T03:06:08.928Z,74.10
2023-05-22T03:08:36.143Z,74.10
2023-05-22T03:11:02.618Z,74.00
2023-05-22T03:13:29.588Z,74.00
2023-05-22T03:15:56.114Z,73.90
2023-05-22T03:18:24.301Z,73.70
2023-05-22T03:20:52.492Z,73.80
2023-05-22T03:23:19.596Z,73.80
2023-05-22T03:25:46.492Z,73.70
2023-05-22T03:28:13.348Z,74.30
2023-05-22T03:30:40.518Z,73.40
2023-05-22T03:33:07.714Z,73.30
2023-05-22T03:35:34.637Z,73.30
2023-05-22T03:38:01.113Z,73.40
2023-05-22T03:40:27.880Z,73.30
2023-05-22T03:42:54.391Z,73.30
2023-05-22T03:45:21.339Z,73.40
2023-05-22T03:47:48.074Z,73.40
2023-05-22T03:50:14.944Z,73.70
2023-05-22T03:52:41.431Z,73.80
2023-05-22T03:55:08.955Z,73.90
2023-05-22T03:57:35.726Z,74.00
2023-05-22T04:00:02.236Z,74.00
2023-05-22T04:02:29.234Z,74.10
2023-05-22T04:04:55.807Z,74.20
2023-05-22T04:07:22.733Z,74.60
2023-05-22T04:09:49.595Z,74.90
2023-05-22T04:12:16.123Z,75.20
2023-05-22T04:14:42.938Z,75.30
2023-05-22T04:17:09.770Z,75.60
2023-05-22T04:19:36.302Z,75.70
2023-05-22T04:22:03.246Z,75.70
2023-05-22T04:24:29.746Z,75.50
2023-05-22T04:26:56.614Z,75.30
2023-05-22T04:29:23.476Z,75.50
2023-05-22T04:31:49.990Z,75.40
2023-05-22T04:34:17.354Z,75.70
2023-05-22T04:36:43.887Z,75.10
2023-05-22T04:39:10.724Z,75.10
2023-05-22T04:41:37.208Z,75.10
2023-05-22T04:44:03.807Z,75.40
2023-05-22T04:46:30.652Z,75.00
2023-05-22T04:48:57.162Z,74.90
2023-05-22T04:51:23.670Z,75.00
2023-05-22T04:53:50.158Z,74.00
2023-05-22T04:56:27.974Z,74.50
2023-05-22T04:59:01.694Z,74.20
2023-05-22T05:01:29.902Z,73.90
2023-05-22T05:03:57.518Z,73.40
2023-05-22T05:06:24.062Z,73.90
2023-05-22T05:08:50.912Z,73.30
2023-05-22T05:11:17.450Z,72.90
2023-05-22T05:13:44.293Z,72.10
2023-05-22T05:16:10.805Z,71.60
2023-05-22T05:18:37.923Z,71.60
2023-05-22T05:21:04.982Z,70.90
2023-05-22T05:23:31.844Z,70.80
2023-05-22T05:25:58.334Z,69.80
2023-05-22T05:28:24.837Z,69.50
2023-05-22T05:30:51.537Z,69.20
2023-05-22T05:33:18.066Z,68.40
2023-05-22T05:35:44.970Z,68.10
2023-05-22T05:38:11.487Z,66.60
2023-05-22T05:40:38.585Z,65.20
2023-05-22T05:43:06.654Z,64.60
2023-05-22T05:45:34.555Z,63.40
2023-05-22T05:48:01.323Z,62.50
2023-05-22T05:50:27.856Z,62.70
2023-05-22T05:52:54.734Z,62.80
2023-05-22T05:55:21.578Z,62.40
2023-05-22T05:57:48.472Z,62.00
2023-05-22T06:00:15.888Z,61.10
2023-05-22T06:02:42.865Z,60.80
2023-05-22T06:05:09.832Z,59.70
2023-05-22T06:07:36.957Z,58.70
2023-05-22T06:10:07.843Z,58.30
2023-05-22T06:12:34.340Z,57.60
2023-05-22T06:15:01.182Z,57.50
2023-05-22T06:17:27.686Z,55.50
2023-05-22T06:19:54.585Z,54.50
2023-05-22T06:22:21.147Z,52.20
2023-05-22T06:24:48.203Z,51.50
2023-05-22T06:27:14.732Z,50.70
2023-05-22T06:29:41.375Z,49.90
2023-05-22T06:32:08.420Z,47.20
2023-05-22T06:34:35.442Z,47.00
2023-05-22T06:37:02.284Z,45.90
2023-05-22T06:39:29.840Z,44.90
2023-05-22T06:41:58.177Z,44.40
2023-05-22T06:44:24.742Z,44.20
2023-05-22T06:46:52.476Z,44.80
2023-05-22T06:49:19.512Z,45.40
2023-05-22T06:51:46.332Z,46.40
2023-05-22T06:54:13.917Z,47.60
2023-05-22T06:56:40.958Z,48.00
2023-05-22T06:59:07.625Z,47.90
2023-05-22T07:01:34.149Z,48.80
2023-05-22T07:04:01.122Z,49.60
2023-05-22T07:06:28.101Z,48.60
2023-05-22T07:08:54.888Z,45.20
2023-05-22T07:11:21.386Z,45.30
2023-05-22T07:13:48.248Z,44.80
2023-05-22T07:16:16.249Z,43.90
2023-05-22T07:18:43.220Z,45.30
2023-05-22T07:21:10.136Z,45.50
2023-05-22T07:23:36.847Z,43.60
2023-05-22T07:26:03.816Z,44.10
2023-05-22T07:28:30.739Z,44.90
2023-05-22T07:30:57.246Z,45.40
2023-05-22T07:33:24.090Z,47.00
2023-05-22T07:35:50.578Z,48.00
2023-05-22T07:38:17.620Z,47.60
2023-05-22T07:40:44.125Z,45.80
2023-05-22T07:43:11.065Z,46.50
2023-05-22T07:45:37.815Z,47.30
2023-05-22T07:48:04.932Z,48.90
2023-05-22T07:50:31.423Z,48.70
2023-05-22T07:52:58.272Z,47.60
2023-05-22T07:55:24.800Z,47.30
2023-05-22T07:57:52.039Z,47.00
2023-05-22T08:00:19.418Z,46.50
2023-05-22T08:02:46.290Z,46.40
2023-05-22T08:05:13.285Z,46.70
2023-05-22T08:07:39.924Z,45.60
2023-05-22T08:10:26.348Z,44.00
2023-05-22T08:12:53.147Z,43.10
2023-05-22T08:15:19.765Z,44.00
2023-05-22T08:17:46.324Z,43.00
2023-05-22T08:20:13.010Z,44.70
2023-05-22T08:22:39.878Z,45.30
2023-05-22T08:25:06.625Z,45.30
2023-05-22T08:27:33.494Z,45.00
2023-05-22T08:30:00.424Z,45.00
2023-05-22T08:32:28.147Z,45.10
2023-05-22T08:34:56.104Z,45.20
2023-05-22T08:37:22.642Z,45.20
2023-05-22T08:39:49.487Z,45.20
2023-05-22T08:42:16.046Z,45.50
2023-05-22T08:44:43.028Z,45.30
2023-05-22T08:47:10.463Z,46.00
2023-05-22T08:49:39.749Z,46.90
2023-05-22T08:52:12.442Z,47.00
2023-05-22T08:54:42.285Z,48.10
2023-05-22T08:57:09.049Z,49.90
2023-05-22T08:59:38.542Z,49.30
2023-05-22T09:02:06.901Z,50.00
2023-05-22T09:04:33.600Z,50.10
2023-05-22T09:07:00.348Z,51.40
2023-05-22T09:09:26.850Z,51.70
2023-05-22T09:11:55.348Z,50.60
2023-05-22T09:14:21.856Z,50.40
2023-05-22T09:16:51.959Z,49.70
2023-05-22T09:19:18.980Z,49.00
2023-05-22T09:21:46.296Z,47.40
2023-05-22T09:24:13.024Z,46.30
2023-05-22T09:26:40.497Z,45.50
2023-05-22T09:29:07.199Z,44.30
2023-05-22T09:31:41.723Z,44.10
2023-05-22T09:34:10.258Z,42.80
2023-05-22T09:36:37.220Z,42.60
2023-05-22T09:39:04.987Z,41.90
2023-05-22T09:41:35.862Z,39.80
2023-05-22T09:44:06.980Z,39.80
2023-05-22T09:46:42.553Z,37.70
2023-05-22T09:49:09.518Z,37.50
2023-05-22T09:51:39.564Z,37.30
2023-05-22T09:54:08.310Z,37.80
2023-05-22T09:56:39.918Z,37.70
2023-05-22T09:59:09.345Z,36.70
2023-05-22T10:01:38.635Z,38.00
2023-05-22T10:04:06.060Z,36.70
2023-05-22T10:06:33.472Z,35.50
2023-05-22T10:09:06.800Z,35.40
2023-05-22T10:11:35.100Z,35.10
2023-05-22T10:14:03.686Z,35.40
2023-05-22T10:16:31.194Z,34.00
2023-05-22T10:18:58.618Z,33.70
2023-05-22T10:21:25.241Z,34.00
2023-05-22T10:23:52.805Z,33.80
2023-05-22T10:26:19.979Z,33.80
2023-05-22T10:28:53.615Z,33.40
2023-05-22T10:31:35.060Z,34.30
2023-05-22T10:34:07.164Z,33.70
2023-05-22T10:37:13.045Z,33.70
2023-05-22T10:40:05.111Z,35.80
2023-05-22T10:42:32.178Z,34.00
2023-05-22T10:45:00.842Z,34.20
2023-05-22T10:47:27.436Z,33.10
2023-05-22T10:50:12.194Z,33.70
2023-05-22T10:52:39.340Z,35.80
2023-05-22T10:55:10.471Z,35.90
2023-05-22T10:57:38.561Z,35.80
2023-05-22T11:00:17.987Z,34.50
2023-05-22T11:02:45.864Z,37.30
2023-05-22T11:05:18.691Z,35.30
2023-05-22T11:07:45.270Z,36.40
2023-05-22T11:10:11.778Z,37.90
2023-05-22T11:12:38.645Z,39.20
2023-05-22T11:15:11.291Z,38.40
2023-05-22T11:17:43.098Z,39.30
2023-05-22T11:20:18.466Z,37.70
2023-05-22T11:22:51.108Z,39.20
2023-05-22T11:25:19.253Z,37.40
2023-05-22T11:27:47.403Z,38.10
2023-05-22T11:30:15.273Z,38.30
2023-05-22T11:32:44.604Z,39.80
2023-05-22T11:35:29.647Z,39.50
2023-05-22T11:37:56.491Z,40.90
2023-05-22T11:40:24.859Z,40.60
2023-05-22T11:42:52.755Z,42.70
2023-05-22T11:45:19.327Z,41.90
2023-05-22T11:47:45.989Z,41.00
2023-05-22T11:50:13.073Z,42.00
2023-05-22T11:52:42.078Z,42.50
2023-05-22T11:55:10.151Z,43.00
2023-05-22T11:57:37.751Z,45.70
2023-05-22T12:00:09.100Z,42.30
2023-05-22T12:02:35.883Z,43.10
2023-05-22T12:05:02.896Z,45.10
2023-05-22T12:07:29.544Z,44.70
2023-05-22T12:09:56.836Z,46.40
2023-05-22T12:12:24.078Z,43.90
2023-05-22T12:14:50.616Z,43.10
2023-05-22T12:17:17.683Z,41.30
2023-05-22T12:19:44.657Z,42.40
2023-05-22T12:22:12.279Z,43.70
2023-05-22T12:24:43.091Z,43.00
2023-05-22T12:27:10.689Z,43.80
2023-05-22T12:29:41.313Z,42.80
2023-05-22T12:32:10.546Z,41.20
2023-05-22T12:34:43.833Z,43.00
2023-05-22T12:37:23.023Z,43.40
2023-05-22T12:40:00.292Z,43.40
2023-05-22T12:42:27.665Z,44.30
2023-05-22T12:44:56.148Z,42.50
2023-05-22T12:47:24.280Z,41.10
2023-05-22T12:49:51.460Z,38.30
2023-05-22T12:52:18.335Z,38.90
2023-05-22T12:54:45.114Z,41.00
2023-05-22T12:57:11.631Z,42.10
2023-05-22T12:59:38.193Z,38.10
2023-05-22T13:02:05.436Z,41.60
2023-05-22T13:04:32.187Z,39.50
2023-05-22T13:06:58.973Z,39.90
2023-05-22T13:09:25.874Z,41.00
2023-05-22T13:11:52.976Z,41.90
2023-05-22T13:14:19.581Z,39.50
2023-05-22T13:16:46.131Z,41.40
2023-05-22T13:19:13.033Z,41.00
2023-05-22T13:21:39.606Z,41.80
2023-05-22T13:24:06.759Z,42.90
2023-05-22T13:26:33.643Z,42.80
2023-05-22T13:29:00.143Z,42.00
2023-05-22T13:31:26.717Z,41.30
2023-05-22T13:33:53.333Z,41.00
2023-05-22T13:36:20.231Z,40.80
2023-05-22T13:38:46.919Z,38.70
2023-05-22T13:41:13.770Z,39.40
2023-05-22T13:43:40.264Z,40.90
2023-05-22T13:46:06.785Z,37.70
2023-05-22T13:48:33.621Z,39.30
2023-05-22T13:51:00.111Z,40.70
2023-05-22T13:53:26.977Z,39.10
2023-05-22T13:55:53.467Z,41.60
2023-05-22T13:58:19.976Z,39.80
2023-05-22T14:00:46.779Z,38.80
2023-05-22T14:03:13.466Z,41.00
2023-05-22T14:05:40.568Z,39.90
2023-05-22T14:08:07.338Z,40.90
2023-05-22T14:10:34.272Z,40.60
2023-05-22T14:13:01.144Z,38.40
2023-05-22T14:15:28.077Z,37.80
2023-05-22T14:17:54.593Z,40.80
2023-05-22T14:20:21.134Z,40.50
2023-05-22T14:22:57.154Z,39.40
2023-05-22T14:25:25.929Z,40.30
2023-05-22T14:27:52.737Z,39.70
2023-05-22T14:30:19.385Z,39.90
2023-05-22T14:32:46.150Z,39.90
2023-05-22T14:35:12.709Z,37.30
2023-05-22T14:37:39.342Z,38.80
2023-05-22T14:40:06.670Z,37.30
2023-05-22T14:42:33.177Z,38.10
2023-05-22T14:44:59.857Z,38.30
2023-05-22T14:47:26.363Z,39.20
2023-05-22T14:49:55.552Z,39.80
2023-05-22T14:52:26.491Z,37.90
2023-05-22T14:54:52.992Z,36.60
2023-05-22T14:57:19.495Z,38.80
2023-05-22T14:59:45.976Z,36.30
2023-05-22T15:02:12.617Z,36.90
2023-05-22T15:04:39.290Z,37.00
2023-05-22T15:07:05.885Z,37.20
2023-05-22T15:09:32.412Z,36.70
2023-05-22T15:11:59.249Z,38.10
2023-05-22T15:14:25.763Z,39.20
2023-05-22T15:16:52.338Z,39.00
2023-05-22T15:19:19.162Z,39.90
2023-05-22T15:21:45.764Z,39.20
2023-05-22T15:24:13.473Z,41.00
2023-05-22T15:26:39.988Z,41.40
2023-05-22T15:29:06.613Z,41.10
2023-05-22T15:31:33.160Z,42.10
2023-05-22T15:33:59.710Z,42.80
2023-05-22T15:36:27.469Z,44.00
2023-05-22T15:38:53.983Z,43.00
2023-05-22T15:41:20.487Z,41.40
2023-05-22T15:43:47.758Z,41.50
2023-05-22T15:46:14.408Z,42.00
2023-05-22T15:48:41.059Z,41.10
2023-05-22T15:51:07.871Z,41.80
2023-05-22T15:53:34.361Z,43.20
2023-05-22T15:56:00.886Z,44.30
2023-05-22T15:58:27.450Z,45.50
2023-05-22T16:00:55.630Z,46.40
2023-05-22T16:03:22.862Z,47.90
2023-05-22T16:05:49.564Z,52.40
2023-05-22T16:08:16.591Z,54.20
2023-05-22T16:10:43.611Z,54.60
2023-05-22T16:13:10.524Z,54.90
2023-05-22T16:15:38.074Z,55.20
2023-05-22T16:18:08.228Z,58.70
2023-05-22T16:20:35.674Z,58.20
2023-05-22T16:23:03.050Z,59.10
2023-05-22T16:25:29.532Z,60.80
2023-05-22T16:27:56.367Z,63.20
2023-05-22T16:30:22.876Z,62.30
2023-05-22T16:32:49.512Z,63.00
2023-05-22T16:35:16.958Z,65.50
2023-05-22T16:37:43.478Z,66.00
2023-05-22T16:40:10.798Z,65.50
2023-05-22T16:42:37.463Z,67.80
2023-05-22T16:45:05.327Z,68.60
2023-05-22T16:47:31.828Z,67.40
2023-05-22T16:49:59.220Z,67.40
2023-05-22T16:52:26.075Z,67.00
2023-05-22T16:54:53.224Z,66.60
2023-05-22T16:57:20.091Z,66.40
2023-05-22T16:59:46.947Z,66.80
2023-05-22T17:02:13.916Z,66.80
2023-05-22T17:04:40.436Z,67.20
2023-05-22T17:07:07.311Z,66.70
2023-05-22T17:09:33.832Z,66.70
2023-05-22T17:12:00.393Z,66.70
2023-05-22T17:14:27.377Z,66.40
2023-05-22T17:16:54.603Z,66.10
2023-05-22T17:19:21.455Z,66.10
2023-05-22T17:21:48.045Z,66.70
2023-05-22T17:24:14.978Z,67.30
2023-05-22T17:26:42.105Z,66.10
2023-05-22T17:29:08.624Z,64.70
2023-05-22T17:31:36.815Z,64.20
2023-05-22T17:34:05.481Z,64.40
2023-05-22T17:36:32.008Z,64.00
2023-05-22T17:38:59.527Z,63.70
2023-05-22T17:41:26.042Z,64.00
2023-05-22T17:43:52.795Z,64.40
2023-05-22T17:46:19.367Z,63.60
2023-05-22T17:48:45.894Z,64.80
2023-05-22T17:51:12.376Z,63.70
2023-05-22T17:53:39.329Z,63.50
2023-05-22T17:56:06.571Z,63.60
2023-05-22T17:58:33.045Z,63.40
2023-05-22T18:00:59.914Z,64.30
2023-05-22T18:03:26.563Z,64.80
2023-05-22T18:05:53.186Z,64.50
2023-05-22T18:08:19.799Z,64.80
2023-05-22T18:10:46.348Z,65.40
2023-05-22T18:13:13.205Z,65.10
2023-05-22T18:15:39.785Z,64.70
2023-05-22T18:18:06.460Z,64.20
2023-05-22T18:20:33.045Z,62.00
2023-05-22T18:22:59.805Z,62.30
2023-05-22T18:25:26.345Z,59.40
2023-05-22T18:27:52.887Z,58.20
2023-05-22T18:30:19.666Z,59.20
2023-05-22T18:32:46.236Z,57.50
2023-05-22T18:35:13.150Z,55.10
2023-05-22T18:37:39.720Z,57.30
2023-05-22T18:40:07.151Z,55.40
2023-05-22T18:42:34.041Z,56.70
2023-05-22T18:45:00.578Z,55.70
2023-05-22T18:47:27.472Z,55.90
2023-05-22T18:49:53.992Z,54.20
2023-05-22T18:52:20.496Z,56.40
2023-05-22T18:54:47.634Z,54.80
2023-05-22T18:57:14.207Z,54.90
2023-05-22T18:59:41.086Z,55.00
2023-05-22T19:02:08.346Z,54.50
2023-05-22T19:04:35.228Z,55.30
2023-05-22T19:07:01.737Z,55.70
2023-05-22T19:09:28.613Z,54.10
2023-05-22T19:11:55.089Z,54.90
2023-05-22T19:14:21.715Z,54.60
2023-05-22T19:16:48.301Z,55.60
2023-05-22T19:19:15.193Z,55.70
2023-05-22T19:21:41.850Z,55.00
2023-05-22T19:24:08.344Z,56.00
2023-05-22T19:26:34.886Z,55.00
2023-05-22T19:29:01.376Z,55.30
2023-05-22T19:31:28.963Z,55.80
2023-05-22T19:33:56.109Z,55.20
2023-05-22T19:36:22.682Z,55.70
2023-05-22T19:38:49.509Z,56.20
2023-05-22T19:41:16.770Z,56.20
2023-05-22T19:43:46.358Z,57.00
2023-05-22T19:46:13.441Z,56.60
2023-05-22T19:48:40.060Z,57.20
2023-05-22T19:51:06.558Z,56.90
2023-05-22T19:53:33.301Z,57.20
2023-05-22T19:56:00.538Z,57.20
2023-05-22T19:58:27.083Z,57.20
2023-05-22T20:00:53.728Z,57.20
2023-05-22T20:03:20.587Z,56.40
2023-05-22T20:05:47.354Z,56.40
2023-05-22T20:08:13.858Z,57.10
2023-05-22T20:10:40.531Z,56.40
2023-05-22T20:13:07.172Z,55.70
2023-05-22T20:15:33.678Z,55.70
2023-05-22T20:18:00.296Z,55.60
2023-05-22T20:20:27.193Z,55.90
2023-05-22T20:22:53.812Z,55.80
2023-05-22T20:25:20.943Z,55.20
2023-05-22T20:27:47.483Z,55.70
2023-05-22T20:30:14.130Z,55.70
2023-05-22T20:32:40.809Z,55.80
2023-05-22T20:35:09.610Z,56.90
2023-05-22T20:37:36.463Z,56.80
2023-05-22T20:40:03.506Z,56.80
2023-05-22T20:42:29.991Z,56.80
2023-05-22T20:44:56.493Z,57.10
2023-05-22T20:47:23.027Z,56.60
2023-05-22T20:49:49.528Z,57.20
2023-05-22T20:52:16.001Z,58.20
2023-05-22T20:54:42.517Z,57.80
2023-05-22T20:57:09.018Z,58.00
2023-05-22T20:59:35.515Z,58.40
2023-05-22T21:02:02.441Z,57.80
2023-05-22T21:04:29.015Z,57.60
2023-05-22T21:06:55.896Z,57.90
2023-05-22T21:09:22.403Z,57.90
2023-05-22T21:11:48.900Z,58.40
2023-05-22T21:14:15.393Z,58.70
2023-05-22T21:16:42.120Z,58.40
2023-05-22T21:19:08.740Z,59.10
2023-05-22T21:21:35.774Z,59.40
2023-05-22T21:24:02.265Z,58.70
2023-05-22T21:26:28.804Z,58.90
2023-05-22T21:28:55.542Z,59.90
2023-05-22T21:31:22.088Z,59.70
2023-05-22T21:33:48.812Z,59.80
2023-05-22T21:36:15.322Z,60.40
2023-05-22T21:38:42.216Z,60.40
2023-05-22T21:41:08.710Z,60.90
2023-05-22T21:43:35.595Z,60.90
2023-05-22T21:46:02.372Z,61.40
2023-05-22T21:48:28.932Z,61.80
2023-05-22T21:50:55.931Z,60.80
2023-05-22T21:53:22.735Z,61.40
2023-05-22T21:55:49.607Z,61.50
2023-05-22T21:58:16.093Z,61.90
2023-05-22T22:00:43.009Z,62.40
2023-05-22T22:03:09.638Z,62.20
2023-05-22T22:05:36.327Z,62.90
2023-05-22T22:08:03.210Z,63.10
2023-05-22T22:10:29.687Z,63.70
2023-05-22T22:12:56.815Z,62.80
2023-05-22T22:15:23.438Z,63.20
2023-05-22T22:17:50.318Z,62.60
2023-05-22T22:20:20.325Z,63.50
2023-05-22T22:22:49.414Z,63.80
2023-05-22T22:25:16.290Z,63.90
2023-05-22T22:27:43.076Z,63.50
2023-05-22T22:30:10.304Z,63.20
2023-05-22T22:32:36.981Z,60.90
2023-05-22T22:35:04.072Z,60.90
2023-05-22T22:37:30.917Z,61.30
2023-05-22T22:39:57.696Z,61.40
2023-05-22T22:42:24.197Z,61.60
2023-05-22T22:44:51.154Z,61.50
2023-05-22T22:47:18.023Z,61.90
2023-05-22T22:49:44.923Z,62.50
2023-05-22T22:52:11.414Z,62.00
2023-05-22T22:54:38.430Z,62.40
2023-05-22T22:57:05.120Z,62.20
2023-05-22T22:59:32.023Z,62.30
2023-05-22T23:01:58.931Z,62.50
2023-05-22T23:04:25.966Z,62.20
2023-05-22T23:06:52.588Z,62.00
2023-05-22T23:09:19.477Z,61.20
2023-05-22T23:11:45.973Z,61.10
2023-05-22T23:14:12.717Z,60.00
2023-05-22T23:16:39.891Z,60.30
2023-05-22T23:19:07.905Z,60.70
2023-05-22T23:21:35.075Z,60.80
2023-05-22T23:24:03.825Z,61.40
2023-05-22T23:26:31.357Z,61.00
2023-05-22T23:29:01.792Z,61.40
2023-05-22T23:31:29.877Z,61.10
2023-05-22T23:33:57.494Z,61.60
2023-05-22T23:36:24.677Z,61.40
2023-05-22T23:38:51.231Z,61.50
2023-05-22T23:41:17.951Z,61.30
2023-05-22T23:43:45.209Z,60.70
2023-05-22T23:46:12.491Z,60.30
2023-05-22T23:48:40.065Z,60.80
2023-05-22T23:51:07.748Z,60.90
2023-05-22T23:53:38.349Z,61.00
2023-05-22T23:56:05.532Z,61.10
2023-05-22T23:58:32.156Z,60.60
